KPOE/POE METAR and TAF weather

Enter ICAO airport designator
Station Type Date Time Source
KPOE METAR 2022/11/30 10:55 UTC NOAA

KPOE 301055Z AUTO 33011G22KT 10SM BKN023 16/10 A3004 RMK AO2 PK WND 35026/21 BKN V OVC SLP173 T01590100 $


Station Type Date Time Source
KPOE Decoded METAR 2022/11/30 10:55 UTC NOAA

Fort Polk, Polk AAF Ft Polk, LA, United States (KPOE) 31-03N 093-11-38W
Nov 30, 2022 - 05:55 AM EST / 2022.11.30 1055 UTC
Wind: from the NNW (330 degrees) at 13 MPH (11 KT) gusting to 25 MPH (22 KT):0
Visibility: 10 mile(s):0
Sky conditions: mostly cloudy
Temperature: 60.6 F (15.9 C)
Dew Point: 50.0 F (10.0 C)
Relative Humidity: 67%
Pressure (altimeter): 30.04 in. Hg (1017 hPa)
ob: KPOE 301055Z AUTO 33011G22KT 10SM BKN023 16/10 A3004 RMK AO2 PK WND 35026/21 BKN V OVC SLP173 T01590100
cycle: 11

Station Type Date Time Source
KPOE TAF 2022/11/29 23:18 UTC NOAA

TAF TAF KPOE 292315Z 2923/0105 20015G25KT 6000 SHRA VCTS OVC015CB QNH2974INS
BECMG 3004/3005 34012KT 4800 BR OVC005 QNH2984INS
BECMG 3008/3009 36015G25KT 9999 NSW SKC QNH2994INS
BECMG 3013/3014 03015G20KT 9999 SKC QNH3016INS
BECMG 3022/3023 03006KT 9999 SKC QNH3030INS TX25/2923Z TN09/3013Z LAST NO
AMDS AFT 3006 NEXT 3015

Example: see airport list